SITKA AML AK US NWS current weather conditions

sailwx.info

Wind from 150 at 1 knots gusting 2

Air temperature 1.8° C
Dewpoint -0.0° C

Last reported at 2020-Jan-22 14:03 UTC.
Time now 2020-Jan-22 14:58 UTC

Location: N 57°07' W 135°23'.
View on Google Maps.

See reports from other nearby stations

  
Tides and Currents Weather Stations Pressure Air Temp Water Temp Dewpoint Dewpoint Depression Visibility Wind Speed Wind Dir Waves Ship Positions
date/time (UTC)wind fromknots sea level pressurealtimeterstation pressurevisibilityair tempwater tempwave heightnotes
2020-Jan-22 14:03 150 1 gusting 2 1.8
2020-Jan-22 13:52 150 1 gusting 4 1.9
2020-Jan-22 13:42 150 2 gusting 5 1.9
2020-Jan-22 13:33 170 1 gusting 2 2.0
2020-Jan-22 13:23 140 1 gusting 5 1.8
2020-Jan-22 13:13 160 4 gusting 6 1.9
2020-Jan-22 13:03 120 1 gusting 5 1.8
2020-Jan-22 12:53 170 1 gusting 4 2.0
2020-Jan-22 12:43 160 2 gusting 5 1.8
2020-Jan-22 12:32 110 0 gusting 2 1.9
2020-Jan-22 12:23 170 1 gusting 2 2.2
2020-Jan-22 12:13 2.0
2020-Jan-22 12:03 150 1 gusting 4 1.9
2020-Jan-22 11:53 160 1 gusting 2 2.1
2020-Jan-22 11:42 160 1 gusting 2 2.0
2020-Jan-22 11:33 160 1 gusting 2 1.9
2020-Jan-22 11:23 150 1 gusting 4 1.8
2020-Jan-22 11:12 140 0 gusting 1 1.8
2020-Jan-22 11:02 160 0 gusting 2 1.9
2020-Jan-22 10:53 160 0 gusting 1 1.9
2020-Jan-22 10:43 150 2 gusting 5 2.0
2020-Jan-22 10:33 160 2 gusting 5 2.0
2020-Jan-22 10:23 160 0 gusting 1 1.9
2020-Jan-22 10:13 160 0 gusting 2 1.9
2020-Jan-22 10:03 160 1 gusting 2 1.8
2020-Jan-22 09:52 160 0 gusting 2 1.8
2020-Jan-22 09:42 150 2 gusting 4 1.7
2020-Jan-22 09:33 160 0 gusting 2 1.7
2020-Jan-22 09:23 150 1 gusting 5 1.7
2020-Jan-22 09:12 160 1 gusting 4 1.7
2020-Jan-22 09:03 150 1 gusting 4 1.7
2020-Jan-22 08:53 170 0 gusting 2 1.8
2020-Jan-22 08:43 160 1 gusting 4 1.6
2020-Jan-22 08:33 150 2 gusting 5 1.5
2020-Jan-22 08:23 150 1 gusting 4 1.5
2020-Jan-22 08:12 150 1 gusting 4 1.5
2020-Jan-22 08:02 150 2 gusting 5 1.5
2020-Jan-22 07:53 150 1 gusting 4 1.6
2020-Jan-22 07:42 160 1 gusting 2 1.5
2020-Jan-22 07:33 150 2 gusting 4 1.5
2020-Jan-22 07:23 160 2 gusting 5 1.4
2020-Jan-22 07:13 140 0 gusting 1 1.4
2020-Jan-22 07:02 140 2 gusting 5 1.4
2020-Jan-22 06:53 140 4 gusting 6 1.5
2020-Jan-22 06:42 150 1 gusting 4 1.6
2020-Jan-22 06:33 1.5
2020-Jan-22 06:23 150 1 gusting 4 1.6
2020-Jan-22 06:12 140 2 gusting 4 1.6
2020-Jan-22 06:03 150 2 gusting 2 1.5
2020-Jan-22 05:53 150 1 gusting 2 1.5
2020-Jan-22 05:42 150 2 gusting 5 1.4
2020-Jan-22 05:33 150 2 gusting 6 1.5
2020-Jan-22 05:22 140 2 gusting 5 1.5
2020-Jan-22 05:13 150 1 gusting 2 1.6
2020-Jan-22 05:03 150 2 gusting 2 1.7
2020-Jan-22 04:52 160 1 gusting 2 1.8
2020-Jan-22 04:43 160 1 gusting 2 1.6
2020-Jan-22 04:32 160 1 gusting 2 1.6
2020-Jan-22 04:23 150 1 gusting 2 1.5
2020-Jan-22 04:13 140 4 gusting 6 1.5
2020-Jan-22 04:03 140 2 gusting 5 1.6
2020-Jan-22 03:52 150 2 gusting 4 1.7
2020-Jan-22 03:43 160 1 gusting 4 1.8
2020-Jan-22 03:33 150 1 gusting 4 1.7
2020-Jan-22 03:23 150 2 gusting 4 1.8
2020-Jan-22 03:13 150 2 gusting 5 1.8
2020-Jan-22 03:03 160 1 gusting 4 1.8
2020-Jan-22 02:53 160 2 gusting 4 1.7
2020-Jan-22 02:43 150 2 gusting 4 1.6
2020-Jan-22 02:33 150 2 gusting 4 1.8
2020-Jan-22 02:22 150 1 gusting 4 1.8
2020-Jan-22 02:13 150 1 gusting 2 1.8
2020-Jan-22 02:03 150 1 gusting 4 1.9
2020-Jan-22 01:52 150 2 gusting 5 2.0
2020-Jan-22 01:43 150 1 gusting 4 2.1
2020-Jan-22 01:33 160 1 gusting 4 2.1
2020-Jan-22 01:23 150 1 gusting 4 2.1
2020-Jan-22 01:13 150 1 gusting 4 2.2
2020-Jan-22 01:03 160 0 gusting 2 2.3
2020-Jan-22 00:53 150 1 gusting 4 2.3
2020-Jan-22 00:42 140 1 gusting 5 2.4
2020-Jan-22 00:33 140 2 gusting 5 2.5
2020-Jan-22 00:23 140 1 gusting 4 2.8
2020-Jan-22 00:13 160 0 gusting 2 3.1
2020-Jan-21 23:53 160 0 gusting 1 3.3
2020-Jan-21 23:43 150 1 gusting 2 3.4
2020-Jan-21 23:33 160 0 gusting 2 3.4
2020-Jan-21 23:23 140 1 gusting 2 3.6
2020-Jan-21 23:13 150 1 gusting 4 3.8
2020-Jan-21 23:03 150 0 gusting 2 3.7
2020-Jan-21 22:53 150 0 gusting 2 3.9
2020-Jan-21 22:43 150 1 gusting 1 4.1
2020-Jan-21 22:33 150 1 gusting 2 4.3
2020-Jan-21 22:23 160 0 gusting 1 4.6
2020-Jan-21 22:13 170 1 gusting 1 4.9
2020-Jan-21 22:03 160 1 gusting 2 4.7
2020-Jan-21 21:53 4.7
2020-Jan-21 21:43 4.8
2020-Jan-21 21:33 5.2
2020-Jan-21 21:23 160 0 gusting 1 5.2
2020-Jan-21 21:13 170 0 gusting 1 5.4
2020-Jan-21 21:03 190 0 gusting 1 5.4
2020-Jan-21 20:53 5.2
2020-Jan-21 20:43 4.8
2020-Jan-21 20:33 4.5
2020-Jan-21 20:23 4.6
2020-Jan-21 20:13 170 0 gusting 2 4.7
2020-Jan-21 20:03 180 0 gusting 1 4.4
2020-Jan-21 19:53 3.8
2020-Jan-21 19:43 150 0 gusting 2 3.7
2020-Jan-21 19:33 150 1 gusting 4 3.6
2020-Jan-21 19:23 150 1 gusting 5 3.4
2020-Jan-21 19:13 140 0 gusting 4 3.3
2020-Jan-21 19:03 130 0 gusting 2 3.3
2020-Jan-21 18:53 160 0 gusting 2 3.3
2020-Jan-21 18:43 150 0 gusting 5 3.1
2020-Jan-21 18:33 170 1 gusting 5 3.3
2020-Jan-21 18:23 180 2 gusting 6 3.2
2020-Jan-21 18:13 170 4 gusting 6 3.1
2020-Jan-21 18:03 180 1 gusting 4 3.0
2020-Jan-21 17:53 160 1 gusting 4 2.6
2020-Jan-21 17:43 140 0 gusting 2 2.6
2020-Jan-21 17:33 110 0 gusting 2 2.6
2020-Jan-21 17:23 130 0 gusting 4 2.6
2020-Jan-21 17:13 160 1 gusting 4 2.5
2020-Jan-21 17:03 150 1 gusting 4 2.2
2020-Jan-21 16:53 050 0 gusting 1 2.2
2020-Jan-21 16:43 150 1 gusting 4 2.2
2020-Jan-21 16:33 160 1 gusting 2 2.3
2020-Jan-21 16:23 150 1 gusting 4 2.1
2020-Jan-21 16:13 140 1 gusting 5 2.0
2020-Jan-21 16:03 130 0 gusting 5 2.1
2020-Jan-21 15:53 150 1 gusting 4 2.1
2020-Jan-21 15:43 120 1 gusting 5 2.1
2020-Jan-21 15:33 170 2 gusting 4 2.2
2020-Jan-21 15:23 170 2 gusting 4 2.0
2020-Jan-21 15:13 140 1 gusting 5 1.7
2020-Jan-21 15:03 060 1 gusting 4 1.7
2020-Jan-21 14:53 140 2 gusting 6 2.0
2020-Jan-21 14:43 190 1 gusting 5 2.1
2020-Jan-21 14:33 170 2 gusting 6 1.9
2020-Jan-21 14:23 150 2 gusting 5 1.8
2020-Jan-21 14:13 150 1 gusting 5 1.8
2020-Jan-21 14:03 150 4 gusting 5 1.6
2020-Jan-21 13:53 160 2 gusting 5 1.7
2020-Jan-21 13:43 160 1 gusting 5 1.5
2020-Jan-21 13:33 150 1 gusting 6 1.4
2020-Jan-21 13:23 150 2 gusting 5 1.4
2020-Jan-21 13:13 150 1 gusting 4 1.2
2020-Jan-21 13:02 150 1 gusting 5 1.2
2020-Jan-21 12:53 150 1 gusting 4 1.2
2020-Jan-21 12:42 150 1 gusting 4 1.2
2020-Jan-21 12:33 180 4 gusting 6 1.3
2020-Jan-21 12:23 170 1 gusting 5 1.3
2020-Jan-21 12:12 140 2 gusting 6 1.1
2020-Jan-21 12:03 170 1 gusting 4 1.3
2020-Jan-21 11:52 160 1 gusting 5 1.2
2020-Jan-21 11:43 160 1 gusting 4 1.1
2020-Jan-21 11:32 110 1 gusting 4 1.0
2020-Jan-21 11:22 150 2 gusting 6 1.2
2020-Jan-21 11:12 150 1 gusting 6 1.0
2020-Jan-21 11:03 140 1 gusting 5 1.2
2020-Jan-21 10:52 150 2 gusting 4 1.2
2020-Jan-21 10:42 160 1 gusting 5 1.3
2020-Jan-21 10:33 170 2 gusting 4 1.1
2020-Jan-21 10:23 150 2 gusting 5 0.9
2020-Jan-21 10:13 120 1 gusting 4 0.7
2020-Jan-21 10:02 150 4 gusting 7 0.8
2020-Jan-21 09:53 150 2 gusting 7 0.6
2020-Jan-21 09:43 150 1 gusting 5 0.6
2020-Jan-21 09:33 160 2 gusting 4 0.7
2020-Jan-21 09:22 150 2 gusting 5 0.7
2020-Jan-21 09:13 150 2 gusting 6 0.7
2020-Jan-21 09:03 150 1 gusting 6 0.7
2020-Jan-21 08:52 160 4 gusting 7 0.7
2020-Jan-21 08:42 150 0 gusting 2 0.6
2020-Jan-21 08:33 150 2 gusting 5 0.6
2020-Jan-21 08:22 150 2 gusting 5 0.5
2020-Jan-21 08:12 150 4 gusting 6 0.4
2020-Jan-21 08:02 130 0 gusting 2 0.4
2020-Jan-21 07:53 140 4 gusting 6 0.5
2020-Jan-21 07:42 150 4 gusting 8 0.7
2020-Jan-21 07:33 160 2 gusting 6 0.5
2020-Jan-21 07:23 150 0 gusting 2 0.4
2020-Jan-21 07:13 140 1 gusting 5 0.6
2020-Jan-21 07:03 140 4 gusting 7 0.4
2020-Jan-21 06:53 160 2 gusting 6 0.3
2020-Jan-21 06:42 140 1 gusting 6 0.4
2020-Jan-21 06:33 140 4 gusting 6 0.6
2020-Jan-21 06:23 160 2 gusting 4 0.7
2020-Jan-21 06:13 150 0 gusting 5 0.7
2020-Jan-21 06:03 130 4 gusting 6 0.8
2020-Jan-21 05:53 140 2 gusting 6 1.0
2020-Jan-21 05:42 130 2 gusting 6 1.2
2020-Jan-21 05:33 140 4 gusting 7 1.1
2020-Jan-21 05:23 140 4 gusting 6 1.3
2020-Jan-21 05:12 140 4 gusting 6 1.3
2020-Jan-21 05:03 140 4 gusting 6 1.5
2020-Jan-21 04:53 140 1 gusting 5 1.7
2020-Jan-21 04:42 150 4 gusting 8 1.6
2020-Jan-21 04:33 140 4 gusting 6 1.7
2020-Jan-21 04:23 150 2 gusting 6 2.1
2020-Jan-21 04:13 140 2 gusting 6 2.2
2020-Jan-21 04:03 150 2 gusting 5 2.3
2020-Jan-21 03:52 140 2 gusting 6 2.4
2020-Jan-21 03:43 150 1 gusting 6 2.6
2020-Jan-21 03:33 140 1 gusting 4 2.7
2020-Jan-21 03:23 150 2 gusting 6 2.8
2020-Jan-21 03:13 140 2 gusting 6 2.8
2020-Jan-21 03:03 140 1 gusting 4 2.9
2020-Jan-21 02:53 140 2 gusting 6 2.9
2020-Jan-21 02:43 140 4 gusting 6 2.8
2020-Jan-21 02:33 140 4 gusting 6 2.8
2020-Jan-21 02:23 140 2 gusting 6 2.9
2020-Jan-21 02:13 160 1 gusting 5 3.0
2020-Jan-21 02:03 160 2 gusting 4 2.9
2020-Jan-21 01:52 140 2 gusting 5 3.0
2020-Jan-21 01:42 150 2 gusting 5 3.3
2020-Jan-21 01:33 140 2 gusting 6 3.5
2020-Jan-21 01:23 140 2 gusting 6 3.9
2020-Jan-21 01:13 180 2 gusting 7 4.3
2020-Jan-21 01:02 180 6 gusting 11 4.4
2020-Jan-21 00:52 180 5 gusting 11 4.4
2020-Jan-21 00:42 160 6 gusting 13 4.5
2020-Jan-21 00:33 180 5 gusting 11 4.6
2020-Jan-21 00:23 180 6 gusting 13 4.6
2020-Jan-21 00:13 170 6 gusting 13 4.6
2020-Jan-20 23:52 160 7 gusting 14 4.4
2020-Jan-20 23:42 160 6 gusting 12 4.4
2020-Jan-20 23:33 170 6 gusting 14 4.5
2020-Jan-20 23:22 170 4 gusting 9 4.5
2020-Jan-20 23:13 180 7 gusting 14 4.5
2020-Jan-20 23:03 170 5 gusting 17 4.5
2020-Jan-20 22:52 160 8 gusting 20 4.4
2020-Jan-20 22:42 160 6 gusting 13 4.6
2020-Jan-20 22:33 160 6 gusting 13 4.7
2020-Jan-20 22:23 170 6 gusting 13 4.7
2020-Jan-20 22:13 170 6 gusting 12 4.9
2020-Jan-20 22:03 180 4 gusting 11 5.0
2020-Jan-20 21:52 170 5 gusting 14 4.9
2020-Jan-20 21:42 170 6 gusting 11 4.9
2020-Jan-20 21:33 160 7 gusting 13 4.9
2020-Jan-20 21:23 170 5 gusting 12 5.1
2020-Jan-20 21:13 180 6 gusting 17 5.4
2020-Jan-20 21:02 170 6 gusting 12 5.5
2020-Jan-20 20:53 190 6 gusting 14 5.3
2020-Jan-20 20:43 170 2 gusting 6 5.1
2020-Jan-20 20:33 170 2 gusting 8 4.8
2020-Jan-20 20:23 180 7 gusting 14 4.7
2020-Jan-20 20:13 160 6 gusting 12 4.2
2020-Jan-20 20:03 190 5 gusting 13 3.9
2020-Jan-20 19:53 170 1 gusting 6 3.5
2020-Jan-20 19:43 200 2 gusting 6 3.3
2020-Jan-20 19:33 110 0 gusting 6 3.1
2020-Jan-20 19:23 160 1 gusting 6 3.2
2020-Jan-20 19:13 190 1 gusting 4 3.2
2020-Jan-20 19:03 140 1 gusting 4 2.9
2020-Jan-20 18:53 150 1 gusting 4 3.1
2020-Jan-20 18:42 160 2 gusting 6 2.9
2020-Jan-20 18:33 170 2 gusting 5 2.8
2020-Jan-20 18:23 160 1 gusting 6 2.6
2020-Jan-20 18:13 140 2 gusting 6 2.7
2020-Jan-20 18:03 190 0 gusting 5 2.3
2020-Jan-20 17:52 150 1 gusting 6 2.2
2020-Jan-20 17:43 060 1 gusting 5 2.3
2020-Jan-20 17:33 150 1 gusting 5 2.4
2020-Jan-20 17:22 170 1 gusting 6 2.5
2020-Jan-20 17:12 170 2 gusting 6 2.5
2020-Jan-20 17:03 150 1 gusting 5 2.3
2020-Jan-20 16:53 160 2 gusting 5 2.3
2020-Jan-20 16:43 170 1 gusting 4 2.2
2020-Jan-20 16:33 140 2 gusting 6 2.1
2020-Jan-20 16:23 150 2 gusting 5 2.0
2020-Jan-20 16:13 120 0 gusting 4 1.9
2020-Jan-20 16:03 130 1 gusting 5 2.2
2020-Jan-20 15:52 160 4 gusting 6 2.2
2020-Jan-20 15:43 150 1 gusting 4 2.0
2020-Jan-20 15:33 140 1 gusting 5 2.1
2020-Jan-20 15:22 090 1 gusting 4 2.2
2020-Jan-20 15:13 150 2 gusting 6 2.3
2020-Jan-20 15:03 160 1 gusting 6 2.3
2020-Jan-20 14:52 140 2 gusting 5 2.1
2020-Jan-20 14:43 120 1 gusting 4 2.2
2020-Jan-20 14:33 140 1 gusting 4 2.0
2020-Jan-20 14:22 150 1 gusting 5 2.0
2020-Jan-20 14:13 160 1 gusting 2 2.0
2020-Jan-20 14:02 150 2 gusting 5 1.9